createdAt,value
2023-02-23T00:02:25.380Z,20.55
2023-02-23T00:07:46.192Z,20.55
2023-02-23T00:13:06.829Z,23.80
2023-02-23T00:18:30.239Z,24.25
2023-02-23T00:24:02.721Z,23.00
2023-02-23T00:29:24.955Z,22.92
2023-02-23T00:34:51.430Z,20.35
2023-02-23T00:40:14.724Z,27.38
2023-02-23T00:45:36.759Z,27.73
2023-02-23T00:51:04.164Z,28.58
2023-02-23T00:56:25.609Z,31.63
2023-02-23T01:01:46.297Z,24.38
2023-02-23T01:07:07.046Z,24.02
2023-02-23T01:12:27.767Z,25.98
2023-02-23T01:17:48.584Z,25.10
2023-02-23T01:23:14.486Z,28.38
2023-02-23T01:28:35.346Z,26.58
2023-02-23T01:34:01.813Z,26.30
2023-02-23T01:39:24.411Z,25.10
2023-02-23T01:44:44.889Z,23.48
2023-02-23T01:50:06.582Z,21.58
2023-02-23T01:55:29.307Z,19.20
2023-02-23T02:01:03.083Z,20.05
2023-02-23T02:06:29.479Z,18.67
2023-02-23T02:11:54.207Z,19.35
2023-02-23T02:18:01.017Z,20.10
2023-02-23T02:23:40.422Z,21.40
2023-02-23T02:29:31.356Z,20.17
2023-02-23T02:40:56.552Z,19.58
2023-02-23T02:46:23.700Z,19.58
2023-02-23T02:52:00.946Z,22.23
2023-02-23T02:57:25.813Z,17.35
2023-02-23T03:03:05.399Z,18.60
2023-02-23T03:09:06.706Z,18.85
2023-02-23T03:15:02.470Z,23.75
2023-02-23T03:21:06.477Z,33.30
2023-02-23T03:26:54.505Z,24.80
2023-02-23T03:32:56.763Z,17.27
2023-02-23T03:38:36.278Z,22.92
2023-02-23T03:44:21.829Z,19.48
2023-02-23T03:50:02.269Z,18.35
2023-02-23T03:55:48.106Z,18.77
2023-02-23T04:01:30.013Z,15.40
2023-02-23T04:07:11.392Z,20.25
2023-02-23T04:12:50.753Z,20.00
2023-02-23T04:23:37.582Z,42.50
2023-02-23T04:28:58.733Z,29.05
2023-02-23T04:34:19.550Z,19.08
2023-02-23T04:39:40.514Z,22.45
2023-02-23T04:45:01.606Z,30.70
2023-02-23T04:50:22.437Z,24.17
2023-02-23T04:55:43.475Z,21.13
2023-02-23T05:01:06.694Z,16.83
2023-02-23T05:06:27.671Z,16.00
2023-02-23T05:11:48.333Z,17.25
2023-02-23T05:17:09.094Z,28.85
2023-02-23T05:22:29.909Z,24.40
2023-02-23T05:27:50.954Z,25.90
2023-02-23T05:33:15.106Z,23.85
2023-02-23T05:38:36.991Z,16.52
2023-02-23T05:43:57.684Z,18.70
2023-02-23T05:49:18.194Z,17.58
2023-02-23T05:54:38.920Z,16.30
2023-02-23T05:59:59.492Z,19.38
2023-02-23T06:05:20.212Z,17.88
2023-02-23T06:10:40.881Z,18.15
2023-02-23T06:16:01.937Z,18.85
2023-02-23T06:21:23.019Z,19.58
2023-02-23T06:26:44.555Z,18.75
2023-02-23T06:32:06.162Z,24.60
2023-02-23T06:37:28.223Z,21.55
2023-02-23T06:42:49.001Z,29.63
2023-02-23T06:48:09.868Z,24.63
2023-02-23T06:53:30.876Z,24.35
2023-02-23T06:58:51.873Z,27.25
2023-02-23T07:04:14.299Z,32.35
2023-02-23T07:09:36.835Z,27.60
2023-02-23T07:14:57.808Z,27.83
2023-02-23T07:20:19.765Z,21.05
2023-02-23T07:25:40.638Z,22.25
2023-02-23T07:31:01.367Z,19.85
2023-02-23T07:36:23.485Z,18.35
2023-02-23T07:41:44.401Z,18.27
2023-02-23T07:47:13.566Z,16.65
2023-02-23T07:52:34.317Z,16.13
2023-02-23T07:57:54.946Z,20.48
2023-02-23T08:03:15.637Z,20.98
2023-02-23T08:08:36.292Z,18.02
2023-02-23T08:14:00.680Z,14.93
2023-02-23T08:19:24.615Z,14.80
2023-02-23T08:24:45.507Z,12.48
2023-02-23T08:30:09.806Z,12.52
2023-02-23T08:35:31.206Z,12.93
2023-02-23T08:40:52.056Z,14.93
2023-02-23T08:46:13.325Z,15.18
2023-02-23T08:51:35.062Z,14.55
2023-02-23T08:56:58.110Z,12.20
2023-02-23T09:02:19.195Z,12.77
2023-02-23T09:07:42.105Z,11.00
2023-02-23T09:13:03.010Z,11.05
2023-02-23T09:18:24.173Z,10.82
2023-02-23T09:23:49.800Z,12.90
2023-02-23T09:29:10.630Z,7.82
2023-02-23T09:34:32.392Z,14.27
2023-02-23T09:39:53.330Z,13.50
2023-02-23T09:45:17.072Z,13.02
2023-02-23T09:50:42.096Z,13.35
2023-02-23T09:56:09.486Z,13.55
2023-02-23T10:01:48.878Z,13.40
2023-02-23T10:07:18.918Z,11.43
2023-02-23T10:12:57.315Z,14.80
2023-02-23T10:18:17.850Z,11.20
2023-02-23T10:23:45.623Z,10.82
2023-02-23T10:29:20.947Z,12.82
2023-02-23T10:34:43.144Z,10.68
2023-02-23T10:40:06.055Z,13.38
2023-02-23T10:45:29.758Z,12.20
2023-02-23T10:50:53.803Z,14.50
2023-02-23T10:56:17.682Z,12.68
2023-02-23T11:02:01.021Z,15.13
2023-02-23T11:07:31.339Z,10.50
2023-02-23T11:12:52.061Z,15.00
2023-02-23T11:18:20.787Z,12.77
2023-02-23T11:23:42.063Z,15.70
2023-02-23T11:29:12.480Z,14.05
2023-02-23T11:34:35.509Z,18.00
2023-02-23T11:40:00.518Z,15.38
2023-02-23T11:45:24.318Z,12.65
2023-02-23T11:50:48.581Z,14.73
2023-02-23T11:56:13.696Z,14.05
2023-02-23T12:01:46.958Z,12.55
2023-02-23T12:07:46.408Z,13.52
2023-02-23T12:13:25.418Z,14.75
2023-02-23T12:19:00.801Z,18.00
2023-02-23T12:24:49.166Z,14.52
2023-02-23T12:30:27.719Z,13.73
2023-02-23T12:36:29.891Z,13.10
2023-02-23T12:42:17.696Z,13.05
2023-02-23T12:47:51.967Z,12.60
2023-02-23T12:53:18.080Z,14.48
2023-02-23T12:58:59.762Z,15.15
2023-02-23T13:04:48.540Z,12.20
2023-02-23T13:10:35.625Z,14.40
2023-02-23T13:16:08.854Z,11.15
2023-02-23T13:22:04.911Z,13.57
2023-02-23T13:27:38.916Z,13.25
2023-02-23T13:33:08.358Z,11.93
2023-02-23T13:38:39.300Z,13.30
2023-02-23T13:44:09.969Z,12.77
2023-02-23T13:49:58.115Z,9.85
2023-02-23T13:55:40.044Z,13.30
2023-02-23T14:01:20.530Z,13.48
2023-02-23T14:06:56.685Z,11.70
2023-02-23T14:12:24.924Z,10.05
2023-02-23T14:18:03.665Z,11.85
2023-02-23T14:23:24.426Z,14.27
2023-02-23T14:29:20.807Z,13.00
2023-02-23T14:34:51.618Z,10.32
2023-02-23T14:40:21.094Z,13.52
2023-02-23T14:45:42.027Z,7.63
2023-02-23T14:51:23.380Z,9.63
2023-02-23T14:56:49.453Z,11.60
2023-02-23T15:02:16.974Z,12.10
2023-02-23T15:07:41.173Z,14.98
2023-02-23T15:13:10.537Z,17.40
2023-02-23T15:18:39.371Z,13.80
2023-02-23T15:24:05.364Z,12.27
2023-02-23T15:29:32.461Z,15.65
2023-02-23T15:34:56.014Z,17.60
2023-02-23T15:40:20.814Z,13.10
2023-02-23T15:46:06.106Z,16.23
2023-02-23T15:51:50.819Z,14.32
2023-02-23T15:57:21.396Z,16.15
2023-02-23T16:02:44.661Z,12.95
2023-02-23T16:08:22.729Z,15.35
2023-02-23T16:13:45.921Z,15.25
2023-02-23T16:19:06.730Z,17.02
2023-02-23T16:24:29.241Z,19.33
2023-02-23T16:30:00.379Z,15.15
2023-02-23T16:35:21.080Z,12.25
2023-02-23T16:40:42.312Z,16.48
2023-02-23T16:46:03.143Z,13.88
2023-02-23T16:51:24.686Z,17.10
2023-02-23T16:56:47.122Z,15.20
2023-02-23T17:02:13.879Z,17.20
2023-02-23T17:07:34.708Z,18.95
2023-02-23T17:13:03.210Z,22.10
2023-02-23T17:18:27.014Z,20.90
2023-02-23T17:23:51.172Z,20.75
2023-02-23T17:29:11.868Z,23.25
2023-02-23T17:34:32.723Z,22.73
2023-02-23T17:39:53.411Z,21.33
2023-02-23T17:45:14.094Z,23.92
2023-02-23T17:50:34.702Z,23.27
2023-02-23T17:55:55.981Z,22.23
2023-02-23T18:01:18.163Z,21.40
2023-02-23T18:06:38.928Z,21.05
2023-02-23T18:11:59.692Z,20.60
2023-02-23T18:17:20.455Z,22.02
2023-02-23T18:22:42.653Z,20.85
2023-02-23T18:28:03.489Z,18.77
2023-02-23T18:33:24.458Z,23.00
2023-02-23T18:38:45.969Z,19.98
2023-02-23T18:44:08.876Z,23.20
2023-02-23T18:49:29.582Z,20.20
2023-02-23T18:54:50.632Z,21.55
2023-02-23T19:00:14.544Z,21.13
2023-02-23T19:05:37.591Z,22.23
2023-02-23T19:10:58.335Z,24.02
2023-02-23T19:16:20.033Z,20.90
2023-02-23T19:21:41.039Z,23.45
2023-02-23T19:27:02.023Z,25.38
2023-02-23T19:32:23.232Z,24.35
2023-02-23T19:37:49.177Z,23.95
2023-02-23T19:43:11.900Z,32.63
2023-02-23T19:48:33.517Z,16.55
2023-02-23T19:53:57.200Z,25.40
2023-02-23T19:59:18.308Z,21.48
2023-02-23T20:04:39.171Z,26.15
2023-02-23T20:10:00.159Z,22.98
2023-02-23T20:15:20.773Z,24.63
2023-02-23T20:20:42.010Z,25.58
2023-02-23T20:26:07.374Z,23.70
2023-02-23T20:31:32.234Z,23.10
2023-02-23T20:36:55.272Z,26.27
2023-02-23T20:42:16.174Z,30.02
2023-02-23T20:47:38.130Z,25.88
2023-02-23T20:53:01.181Z,27.23
2023-02-23T20:58:25.730Z,30.02
2023-02-23T21:03:46.747Z,29.10
2023-02-23T21:09:12.826Z,24.55
2023-02-23T21:14:35.474Z,24.63
2023-02-23T21:19:56.699Z,21.52
2023-02-23T21:25:19.716Z,23.58
2023-02-23T21:30:40.516Z,28.25
2023-02-23T21:36:01.156Z,26.70
2023-02-23T21:41:22.397Z,27.38
2023-02-23T21:46:43.221Z,25.35
2023-02-23T21:52:04.440Z,25.67
2023-02-23T21:57:28.308Z,30.48
2023-02-23T22:02:51.384Z,25.75
2023-02-23T22:08:15.872Z,22.85
2023-02-23T22:13:37.214Z,26.52
2023-02-23T22:18:58.461Z,27.10
2023-02-23T22:24:19.120Z,29.05
2023-02-23T22:29:39.930Z,26.88
2023-02-23T22:35:01.208Z,25.90
2023-02-23T22:40:21.969Z,23.92
2023-02-23T22:45:43.987Z,25.42
2023-02-23T22:51:05.493Z,27.50
2023-02-23T22:56:26.219Z,28.42
2023-02-23T23:01:49.022Z,23.08
2023-02-23T23:07:10.708Z,25.88
2023-02-23T23:12:34.307Z,27.85
2023-02-23T23:17:54.917Z,27.13
2023-02-23T23:23:17.233Z,26.02
2023-02-23T23:28:40.432Z,24.38
2023-02-23T23:34:09.334Z,26.23
2023-02-23T23:39:30.264Z,23.67
2023-02-23T23:44:50.901Z,25.17
2023-02-23T23:50:14.120Z,22.50
2023-02-23T23:55:36.217Z,21.67
